sensor_id;sensor_type;location;lat;lon;timestamp;temperature;humidity
62555;DHT22;48610;52.144;8.624;2022-11-20T00:01:31;-2.40;99.90
62555;DHT22;48610;52.144;8.624;2022-11-20T00:04:32;-2.20;99.90
62555;DHT22;48610;52.144;8.624;2022-11-20T00:07:32;-2.00;99.90
62555;DHT22;48610;52.144;8.624;2022-11-20T00:10:36;-2.10;99.90
62555;DHT22;48610;52.144;8.624;2022-11-20T00:13:37;-2.30;99.90
62555;DHT22;48610;52.144;8.624;2022-11-20T00:16:38;-2.50;99.90
62555;DHT22;48610;52.144;8.624;2022-11-20T00:19:39;-2.50;99.90
62555;DHT22;48610;52.144;8.624;2022-11-20T00:22:39;-2.60;99.90
62555;DHT22;48610;52.144;8.624;2022-11-20T00:25:40;-2.70;99.90
62555;DHT22;48610;52.144;8.624;2022-11-20T00:28:41;-2.80;99.90
62555;DHT22;48610;52.144;8.624;2022-11-20T00:31:42;-2.70;99.90
62555;DHT22;48610;52.144;8.624;2022-11-20T00:34:42;-2.70;99.90
62555;DHT22;48610;52.144;8.624;2022-11-20T00:37:43;-2.80;99.90
62555;DHT22;48610;52.144;8.624;2022-11-20T00:40:43;-2.80;99.90
62555;DHT22;48610;52.144;8.624;2022-11-20T00:43:44;-2.90;99.90
62555;DHT22;48610;52.144;8.624;2022-11-20T00:46:44;-3.10;99.90
62555;DHT22;48610;52.144;8.624;2022-11-20T00:49:45;-2.80;99.90
62555;DHT22;48610;52.144;8.624;2022-11-20T00:52:46;-2.80;99.90
62555;DHT22;48610;52.144;8.624;2022-11-20T00:56:00;-2.90;99.90
62555;DHT22;48610;52.144;8.624;2022-11-20T00:59:01;-2.80;99.90
62555;DHT22;48610;52.144;8.624;2022-11-20T01:02:02;-2.80;99.90
62555;DHT22;48610;52.144;8.624;2022-11-20T01:05:03;-2.70;99.90
62555;DHT22;48610;52.144;8.624;2022-11-20T01:08:03;-2.50;99.90
62555;DHT22;48610;52.144;8.624;2022-11-20T01:11:10;-2.50;99.90
62555;DHT22;48610;52.144;8.624;2022-11-20T01:14:13;-2.30;99.90
62555;DHT22;48610;52.144;8.624;2022-11-20T01:17:14;-2.50;99.90
62555;DHT22;48610;52.144;8.624;2022-11-20T01:20:15;-2.60;99.90
62555;DHT22;48610;52.144;8.624;2022-11-20T01:23:15;-2.70;99.90
62555;DHT22;48610;52.144;8.624;2022-11-20T01:26:23;-2.70;99.90
62555;DHT22;48610;52.144;8.624;2022-11-20T01:29:24;-2.70;99.90
62555;DHT22;48610;52.144;8.624;2022-11-20T01:32:25;-2.70;99.90
62555;DHT22;48610;52.144;8.624;2022-11-20T01:35:26;-2.90;99.90
62555;DHT22;48610;52.144;8.624;2022-11-20T01:38:26;-2.90;99.90
62555;DHT22;48610;52.144;8.624;2022-11-20T01:41:29;-3.00;99.90
62555;DHT22;48610;52.144;8.624;2022-11-20T01:47:54;-3.00;99.90
62555;DHT22;48610;52.144;8.624;2022-11-20T01:50:55;-2.90;99.90
62555;DHT22;48610;52.144;8.624;2022-11-20T01:54:00;-2.80;99.90
62555;DHT22;48610;52.144;8.624;2022-11-20T01:57:02;-2.70;99.90
62555;DHT22;48610;52.144;8.624;2022-11-20T02:00:09;-2.80;99.90
62555;DHT22;48610;52.144;8.624;2022-11-20T02:03:13;-3.10;99.90
62555;DHT22;48610;52.144;8.624;2022-11-20T02:06:29;-3.00;99.90
62555;DHT22;48610;52.144;8.624;2022-11-20T02:09:31;-2.90;99.90
62555;DHT22;48610;52.144;8.624;2022-11-20T02:12:32;-3.00;99.90
62555;DHT22;48610;52.144;8.624;2022-11-20T02:15:51;-3.00;99.90
62555;DHT22;48610;52.144;8.624;2022-11-20T02:18:54;-3.00;99.90
62555;DHT22;48610;52.144;8.624;2022-11-20T02:22:05;-3.10;99.90
62555;DHT22;48610;52.144;8.624;2022-11-20T02:25:09;-3.20;99.90
62555;DHT22;48610;52.144;8.624;2022-11-20T02:28:10;-3.10;99.90
62555;DHT22;48610;52.144;8.624;2022-11-20T02:31:11;-3.30;99.90
62555;DHT22;48610;52.144;8.624;2022-11-20T02:34:11;-3.10;99.90
62555;DHT22;48610;52.144;8.624;2022-11-20T02:37:12;-3.20;99.90
62555;DHT22;48610;52.144;8.624;2022-11-20T02:40:13;-3.20;99.90
62555;DHT22;48610;52.144;8.624;2022-11-20T02:43:16;-3.10;99.90
62555;DHT22;48610;52.144;8.624;2022-11-20T02:46:16;-3.10;99.90
62555;DHT22;48610;52.144;8.624;2022-11-20T02:49:17;-3.10;99.90
62555;DHT22;48610;52.144;8.624;2022-11-20T02:52:17;-3.20;99.90
62555;DHT22;48610;52.144;8.624;2022-11-20T02:55:18;-3.20;99.90
62555;DHT22;48610;52.144;8.624;2022-11-20T02:58:18;-3.20;99.90
62555;DHT22;48610;52.144;8.624;2022-11-20T03:01:19;-3.30;99.90
62555;DHT22;48610;52.144;8.624;2022-11-20T03:04:20;-3.50;99.90
62555;DHT22;48610;52.144;8.624;2022-11-20T03:07:20;-3.50;99.90
62555;DHT22;48610;52.144;8.624;2022-11-20T03:10:21;-3.60;99.90
62555;DHT22;48610;52.144;8.624;2022-11-20T03:13:21;-3.60;99.90
62555;DHT22;48610;52.144;8.624;2022-11-20T03:16:22;-3.50;99.90
62555;DHT22;48610;52.144;8.624;2022-11-20T03:19:23;-3.40;99.90
62555;DHT22;48610;52.144;8.624;2022-11-20T03:22:24;-3.40;99.90
62555;DHT22;48610;52.144;8.624;2022-11-20T03:25:24;-3.40;99.90
62555;DHT22;48610;52.144;8.624;2022-11-20T03:28:25;-3.50;99.90
62555;DHT22;48610;52.144;8.624;2022-11-20T03:31:31;-3.40;99.90
62555;DHT22;48610;52.144;8.624;2022-11-20T03:34:32;-3.20;99.90
62555;DHT22;48610;52.144;8.624;2022-11-20T03:37:33;-3.10;99.90
62555;DHT22;48610;52.144;8.624;2022-11-20T03:40:34;-3.20;99.90
62555;DHT22;48610;52.144;8.624;2022-11-20T03:43:36;-3.40;99.90
62555;DHT22;48610;52.144;8.624;2022-11-20T03:46:37;-3.30;99.90
62555;DHT22;48610;52.144;8.624;2022-11-20T03:49:37;-3.30;99.90
62555;DHT22;48610;52.144;8.624;2022-11-20T03:52:38;-3.50;99.90
62555;DHT22;48610;52.144;8.624;2022-11-20T03:55:39;-3.40;99.90
62555;DHT22;48610;52.144;8.624;2022-11-20T03:58:40;-3.30;99.90
62555;DHT22;48610;52.144;8.624;2022-11-20T04:01:41;-3.30;99.90
62555;DHT22;48610;52.144;8.624;2022-11-20T04:04:41;-3.40;99.90
62555;DHT22;48610;52.144;8.624;2022-11-20T04:07:42;-3.40;99.90
62555;DHT22;48610;52.144;8.624;2022-11-20T04:10:43;-3.40;99.90
62555;DHT22;48610;52.144;8.624;2022-11-20T04:13:47;-3.30;99.90
62555;DHT22;48610;52.144;8.624;2022-11-20T04:16:47;-3.50;99.90
62555;DHT22;48610;52.144;8.624;2022-11-20T04:19:48;-3.50;99.90
62555;DHT22;48610;52.144;8.624;2022-11-20T04:22:49;-3.60;99.90
62555;DHT22;48610;52.144;8.624;2022-11-20T04:25:49;-3.50;99.90
62555;DHT22;48610;52.144;8.624;2022-11-20T04:28:50;-3.60;99.90
62555;DHT22;48610;52.144;8.624;2022-11-20T04:31:50;-3.60;99.90
62555;DHT22;48610;52.144;8.624;2022-11-20T04:34:51;-3.70;99.90
62555;DHT22;48610;52.144;8.624;2022-11-20T04:37:52;-3.90;99.90
62555;DHT22;48610;52.144;8.624;2022-11-20T04:40:59;-3.90;99.90
62555;DHT22;48610;52.144;8.624;2022-11-20T04:44:02;-4.10;99.90
62555;DHT22;48610;52.144;8.624;2022-11-20T04:47:03;-4.10;99.90
62555;DHT22;48610;52.144;8.624;2022-11-20T04:50:04;-3.90;99.90
62555;DHT22;48610;52.144;8.624;2022-11-20T04:53:05;-3.90;99.90
62555;DHT22;48610;52.144;8.624;2022-11-20T04:56:07;-3.90;99.90
62555;DHT22;48610;52.144;8.624;2022-11-20T04:59:09;-3.80;99.90
62555;DHT22;48610;52.144;8.624;2022-11-20T05:02:10;-3.80;99.90
62555;DHT22;48610;52.144;8.624;2022-11-20T05:05:12;-3.90;99.90
62555;DHT22;48610;52.144;8.624;2022-11-20T05:08:12;-3.80;99.90
62555;DHT22;48610;52.144;8.624;2022-11-20T05:11:16;-3.80;99.90
62555;DHT22;48610;52.144;8.624;2022-11-20T05:14:16;-3.90;99.90
62555;DHT22;48610;52.144;8.624;2022-11-20T05:17:17;-4.00;99.90
62555;DHT22;48610;52.144;8.624;2022-11-20T05:20:18;-4.00;99.90
62555;DHT22;48610;52.144;8.624;2022-11-20T05:23:19;-4.10;99.90
62555;DHT22;48610;52.144;8.624;2022-11-20T05:26:21;-4.10;99.90
62555;DHT22;48610;52.144;8.624;2022-11-20T05:29:22;-4.10;99.90
62555;DHT22;48610;52.144;8.624;2022-11-20T05:32:22;-4.10;99.90
62555;DHT22;48610;52.144;8.624;2022-11-20T05:35:25;-4.00;99.90
62555;DHT22;48610;52.144;8.624;2022-11-20T05:38:26;-3.90;99.90
62555;DHT22;48610;52.144;8.624;2022-11-20T05:41:26;-3.80;99.90
62555;DHT22;48610;52.144;8.624;2022-11-20T05:44:27;-3.80;99.90
62555;DHT22;48610;52.144;8.624;2022-11-20T05:47:32;-3.60;99.90
62555;DHT22;48610;52.144;8.624;2022-11-20T05:50:32;-3.60;99.90
62555;DHT22;48610;52.144;8.624;2022-11-20T05:53:34;-3.50;99.90
62555;DHT22;48610;52.144;8.624;2022-11-20T05:56:35;-3.30;99.90
62555;DHT22;48610;52.144;8.624;2022-11-20T05:59:35;-3.40;99.90
62555;DHT22;48610;52.144;8.624;2022-11-20T06:02:36;-3.40;99.90
62555;DHT22;48610;52.144;8.624;2022-11-20T06:05:36;-3.30;99.90
62555;DHT22;48610;52.144;8.624;2022-11-20T06:08:37;-3.30;99.90
62555;DHT22;48610;52.144;8.624;2022-11-20T06:11:38;-3.30;99.90
62555;DHT22;48610;52.144;8.624;2022-11-20T06:14:38;-3.40;99.90
62555;DHT22;48610;52.144;8.624;2022-11-20T06:17:39;-3.30;99.90
62555;DHT22;48610;52.144;8.624;2022-11-20T06:20:39;-3.30;99.90
62555;DHT22;48610;52.144;8.624;2022-11-20T06:23:40;-3.20;99.90
62555;DHT22;48610;52.144;8.624;2022-11-20T06:26:41;-3.20;99.90
62555;DHT22;48610;52.144;8.624;2022-11-20T06:29:41;-3.30;99.90
62555;DHT22;48610;52.144;8.624;2022-11-20T06:32:42;-3.30;99.90
62555;DHT22;48610;52.144;8.624;2022-11-20T06:35:43;-3.40;99.90
62555;DHT22;48610;52.144;8.624;2022-11-20T06:38:43;-3.40;99.90
62555;DHT22;48610;52.144;8.624;2022-11-20T06:41:44;-3.40;99.90
62555;DHT22;48610;52.144;8.624;2022-11-20T06:44:45;-3.40;99.90
62555;DHT22;48610;52.144;8.624;2022-11-20T06:47:45;-3.50;99.90
62555;DHT22;48610;52.144;8.624;2022-11-20T06:50:46;-3.50;99.90
62555;DHT22;48610;52.144;8.624;2022-11-20T06:53:46;-3.50;99.90
62555;DHT22;48610;52.144;8.624;2022-11-20T06:56:47;-3.60;99.90
62555;DHT22;48610;52.144;8.624;2022-11-20T06:59:48;-3.70;99.90
62555;DHT22;48610;52.144;8.624;2022-11-20T07:02:49;-3.90;99.90
62555;DHT22;48610;52.144;8.624;2022-11-20T07:05:50;-3.70;99.90
62555;DHT22;48610;52.144;8.624;2022-11-20T07:08:51;-3.60;99.90
62555;DHT22;48610;52.144;8.624;2022-11-20T07:11:52;-3.60;99.90
62555;DHT22;48610;52.144;8.624;2022-11-20T07:14:53;-3.40;99.90
62555;DHT22;48610;52.144;8.624;2022-11-20T07:17:53;-3.20;99.90
62555;DHT22;48610;52.144;8.624;2022-11-20T07:20:54;-3.10;99.90
62555;DHT22;48610;52.144;8.624;2022-11-20T07:23:55;-3.00;99.90
62555;DHT22;48610;52.144;8.624;2022-11-20T07:26:55;-3.10;99.90
62555;DHT22;48610;52.144;8.624;2022-11-20T07:29:56;-3.10;99.90
62555;DHT22;48610;52.144;8.624;2022-11-20T07:32:57;-3.10;99.90
62555;DHT22;48610;52.144;8.624;2022-11-20T07:36:01;-2.90;99.90
62555;DHT22;48610;52.144;8.624;2022-11-20T07:39:02;-2.60;99.90
62555;DHT22;48610;52.144;8.624;2022-11-20T07:42:02;-2.60;99.90
62555;DHT22;48610;52.144;8.624;2022-11-20T07:45:03;-2.60;99.90
62555;DHT22;48610;52.144;8.624;2022-11-20T07:48:04;-2.70;99.90
62555;DHT22;48610;52.144;8.624;2022-11-20T07:51:05;-3.30;99.90
62555;DHT22;48610;52.144;8.624;2022-11-20T07:54:05;-3.20;99.90
62555;DHT22;48610;52.144;8.624;2022-11-20T07:57:06;-2.70;99.90
62555;DHT22;48610;52.144;8.624;2022-11-20T08:00:09;-2.10;99.90
62555;DHT22;48610;52.144;8.624;2022-11-20T08:03:10;-1.80;99.90
62555;DHT22;48610;52.144;8.624;2022-11-20T08:06:11;-1.50;99.90
62555;DHT22;48610;52.144;8.624;2022-11-20T08:09:11;-0.90;99.90
62555;DHT22;48610;52.144;8.624;2022-11-20T08:12:19;-0.80;99.90
62555;DHT22;48610;52.144;8.624;2022-11-20T08:15:39;-0.70;99.90
62555;DHT22;48610;52.144;8.624;2022-11-20T08:18:40;-0.90;99.90
62555;DHT22;48610;52.144;8.624;2022-11-20T08:21:41;-0.50;99.90
62555;DHT22;48610;52.144;8.624;2022-11-20T08:24:42;-0.70;99.90
62555;DHT22;48610;52.144;8.624;2022-11-20T08:27:42;-1.10;99.90
62555;DHT22;48610;52.144;8.624;2022-11-20T08:30:43;-1.10;99.90
62555;DHT22;48610;52.144;8.624;2022-11-20T08:33:43;-1.30;99.90
62555;DHT22;48610;52.144;8.624;2022-11-20T08:39:47;-1.30;99.90
62555;DHT22;48610;52.144;8.624;2022-11-20T08:42:48;-1.20;99.90
62555;DHT22;48610;52.144;8.624;2022-11-20T08:45:49;-1.40;99.90
62555;DHT22;48610;52.144;8.624;2022-11-20T08:48:50;-1.30;99.90
62555;DHT22;48610;52.144;8.624;2022-11-20T08:51:50;-1.30;99.90
62555;DHT22;48610;52.144;8.624;2022-11-20T08:54:52;-1.20;99.90
62555;DHT22;48610;52.144;8.624;2022-11-20T08:57:53;-1.50;99.90
62555;DHT22;48610;52.144;8.624;2022-11-20T09:00:53;-1.60;99.90
62555;DHT22;48610;52.144;8.624;2022-11-20T09:03:57;-1.50;99.90
62555;DHT22;48610;52.144;8.624;2022-11-20T09:07:00;-1.50;99.90
62555;DHT22;48610;52.144;8.624;2022-11-20T09:10:00;-1.30;99.90
62555;DHT22;48610;52.144;8.624;2022-11-20T09:13:01;-1.00;99.90
62555;DHT22;48610;52.144;8.624;2022-11-20T09:16:06;-0.90;99.90
62555;DHT22;48610;52.144;8.624;2022-11-20T09:19:07;-0.90;99.90
62555;DHT22;48610;52.144;8.624;2022-11-20T09:22:07;-0.80;99.90
62555;DHT22;48610;52.144;8.624;2022-11-20T09:25:08;-0.80;99.90
62555;DHT22;48610;52.144;8.624;2022-11-20T09:28:09;-1.10;99.90
62555;DHT22;48610;52.144;8.624;2022-11-20T09:31:30;-1.20;99.90
62555;DHT22;48610;52.144;8.624;2022-11-20T09:34:31;-1.20;99.90
62555;DHT22;48610;52.144;8.624;2022-11-20T09:37:32;-1.10;99.90
62555;DHT22;48610;52.144;8.624;2022-11-20T09:40:34;-1.20;99.90
62555;DHT22;48610;52.144;8.624;2022-11-20T09:43:54;-1.00;99.90
62555;DHT22;48610;52.144;8.624;2022-11-20T09:50:45;-0.50;99.90
62555;DHT22;48610;52.144;8.624;2022-11-20T09:54:00;0.10;99.90
62555;DHT22;48610;52.144;8.624;2022-11-20T09:57:12;0.50;99.90
62555;DHT22;48610;52.144;8.624;2022-11-20T10:00:14;1.30;99.90
62555;DHT22;48610;52.144;8.624;2022-11-20T10:03:26;1.40;99.90
62555;DHT22;48610;52.144;8.624;2022-11-20T10:06:37;1.10;99.90
62555;DHT22;48610;52.144;8.624;2022-11-20T10:09:48;1.00;99.90
62555;DHT22;48610;52.144;8.624;2022-11-20T10:13:06;0.90;99.90
62555;DHT22;48610;52.144;8.624;2022-11-20T10:26:03;1.30;99.90
62555;DHT22;48610;52.144;8.624;2022-11-20T10:29:15;1.30;99.90
62555;DHT22;48610;52.144;8.624;2022-11-20T10:32:20;1.40;99.90
62555;DHT22;48610;52.144;8.624;2022-11-20T10:35:36;1.40;99.90
62555;DHT22;48610;52.144;8.624;2022-11-20T10:38:44;1.40;99.90
62555;DHT22;48610;52.144;8.624;2022-11-20T10:41:50;1.80;99.90
62555;DHT22;48610;52.144;8.624;2022-11-20T10:48:22;2.20;99.90
62555;DHT22;48610;52.144;8.624;2022-11-20T10:59:02;2.20;99.90
62555;DHT22;48610;52.144;8.624;2022-11-20T11:02:43;2.50;99.90
62555;DHT22;48610;52.144;8.624;2022-11-20T11:08:58;3.00;99.90
62555;DHT22;48610;52.144;8.624;2022-11-20T11:11:59;3.10;99.90
62555;DHT22;48610;52.144;8.624;2022-11-20T11:14:59;3.00;99.90
62555;DHT22;48610;52.144;8.624;2022-11-20T11:18:00;3.30;99.90
62555;DHT22;48610;52.144;8.624;2022-11-20T11:21:03;3.70;99.90
62555;DHT22;48610;52.144;8.624;2022-11-20T11:24:04;3.90;99.90
62555;DHT22;48610;52.144;8.624;2022-11-20T11:27:12;4.30;99.90
62555;DHT22;48610;52.144;8.624;2022-11-20T11:30:16;4.40;99.90
62555;DHT22;48610;52.144;8.624;2022-11-20T11:33:21;4.40;99.90
62555;DHT22;48610;52.144;8.624;2022-11-20T11:36:23;4.50;99.90
62555;DHT22;48610;52.144;8.624;2022-11-20T11:39:28;4.40;99.90
62555;DHT22;48610;52.144;8.624;2022-11-20T11:42:30;4.40;99.90
62555;DHT22;48610;52.144;8.624;2022-11-20T11:45:31;4.20;99.90
62555;DHT22;48610;52.144;8.624;2022-11-20T11:48:31;4.00;99.90
62555;DHT22;48610;52.144;8.624;2022-11-20T11:51:56;4.10;99.90
62555;DHT22;48610;52.144;8.624;2022-11-20T11:55:01;4.20;99.90
62555;DHT22;48610;52.144;8.624;2022-11-20T11:58:22;3.80;99.90
62555;DHT22;48610;52.144;8.624;2022-11-20T12:01:32;3.70;99.90
62555;DHT22;48610;52.144;8.624;2022-11-20T12:04:53;3.80;99.90
62555;DHT22;48610;52.144;8.624;2022-11-20T12:11:18;4.60;99.90
62555;DHT22;48610;52.144;8.624;2022-11-20T12:14:35;5.00;99.90
62555;DHT22;48610;52.144;8.624;2022-11-20T12:17:37;5.30;99.90
62555;DHT22;48610;52.144;8.624;2022-11-20T12:20:45;5.70;99.90
62555;DHT22;48610;52.144;8.624;2022-11-20T12:30:32;6.00;99.90
62555;DHT22;48610;52.144;8.624;2022-11-20T12:37:20;5.90;99.90
62555;DHT22;48610;52.144;8.624;2022-11-20T12:40:51;5.30;99.90
62555;DHT22;48610;52.144;8.624;2022-11-20T12:44:19;5.20;99.90
62555;DHT22;48610;52.144;8.624;2022-11-20T12:48:19;4.80;99.90
62555;DHT22;48610;52.144;8.624;2022-11-20T12:51:34;4.90;99.90
62555;DHT22;48610;52.144;8.624;2022-11-20T12:58:00;4.70;99.90
62555;DHT22;48610;52.144;8.624;2022-11-20T13:07:56;4.20;99.90
62555;DHT22;48610;52.144;8.624;2022-11-20T13:11:13;4.40;99.90
62555;DHT22;48610;52.144;8.624;2022-11-20T13:14:46;4.70;99.90
62555;DHT22;48610;52.144;8.624;2022-11-20T13:18:01;4.60;99.90
62555;DHT22;48610;52.144;8.624;2022-11-20T13:21:13;4.10;99.90
62555;DHT22;48610;52.144;8.624;2022-11-20T13:24:21;3.90;99.90
62555;DHT22;48610;52.144;8.624;2022-11-20T13:27:24;3.80;99.90
62555;DHT22;48610;52.144;8.624;2022-11-20T13:30:26;3.80;99.90
62555;DHT22;48610;52.144;8.624;2022-11-20T13:33:32;3.60;99.90
62555;DHT22;48610;52.144;8.624;2022-11-20T13:36:33;3.60;99.90
62555;DHT22;48610;52.144;8.624;2022-11-20T13:39:36;3.60;99.90
62555;DHT22;48610;52.144;8.624;2022-11-20T13:42:45;3.30;99.90
62555;DHT22;48610;52.144;8.624;2022-11-20T13:46:00;3.50;99.90
62555;DHT22;48610;52.144;8.624;2022-11-20T13:49:07;3.50;99.90
62555;DHT22;48610;52.144;8.624;2022-11-20T13:53:07;3.50;99.90
62555;DHT22;48610;52.144;8.624;2022-11-20T13:56:10;3.70;99.90
62555;DHT22;48610;52.144;8.624;2022-11-20T13:59:24;3.80;99.90
62555;DHT22;48610;52.144;8.624;2022-11-20T14:02:29;4.00;99.90
62555;DHT22;48610;52.144;8.624;2022-11-20T14:05:34;3.80;99.90
62555;DHT22;48610;52.144;8.624;2022-11-20T14:08:42;3.80;99.90
62555;DHT22;48610;52.144;8.624;2022-11-20T14:11:47;3.50;99.90
62555;DHT22;48610;52.144;8.624;2022-11-20T14:14:50;3.20;99.90
62555;DHT22;48610;52.144;8.624;2022-11-20T14:17:51;3.10;99.90
62555;DHT22;48610;52.144;8.624;2022-11-20T14:20:52;3.30;99.90
62555;DHT22;48610;52.144;8.624;2022-11-20T14:24:03;3.30;99.90
62555;DHT22;48610;52.144;8.624;2022-11-20T14:27:04;3.40;99.90
62555;DHT22;48610;52.144;8.624;2022-11-20T14:30:05;3.30;99.90
62555;DHT22;48610;52.144;8.624;2022-11-20T14:33:06;3.00;99.90
62555;DHT22;48610;52.144;8.624;2022-11-20T14:36:17;2.80;99.90
62555;DHT22;48610;52.144;8.624;2022-11-20T14:39:31;2.90;99.90
62555;DHT22;48610;52.144;8.624;2022-11-20T14:42:33;3.20;99.90
62555;DHT22;48610;52.144;8.624;2022-11-20T14:45:34;3.20;99.90
62555;DHT22;48610;52.144;8.624;2022-11-20T14:48:55;3.30;99.90
62555;DHT22;48610;52.144;8.624;2022-11-20T14:52:10;3.30;99.90
62555;DHT22;48610;52.144;8.624;2022-11-20T14:55:13;3.30;99.90
62555;DHT22;48610;52.144;8.624;2022-11-20T14:58:26;3.30;99.90
62555;DHT22;48610;52.144;8.624;2022-11-20T15:01:32;3.30;99.90
62555;DHT22;48610;52.144;8.624;2022-11-20T15:04:43;3.20;99.90
62555;DHT22;48610;52.144;8.624;2022-11-20T15:07:47;3.00;99.90
62555;DHT22;48610;52.144;8.624;2022-11-20T15:10:51;2.90;99.90
62555;DHT22;48610;52.144;8.624;2022-11-20T15:13:52;2.90;99.90
62555;DHT22;48610;52.144;8.624;2022-11-20T15:16:53;3.00;99.90
62555;DHT22;48610;52.144;8.624;2022-11-20T15:19:55;2.70;99.90
62555;DHT22;48610;52.144;8.624;2022-11-20T15:22:55;2.70;99.90
62555;DHT22;48610;52.144;8.624;2022-11-20T15:25:56;2.70;99.90
62555;DHT22;48610;52.144;8.624;2022-11-20T15:28:57;2.60;99.90
62555;DHT22;48610;52.144;8.624;2022-11-20T15:31:58;2.60;99.90
62555;DHT22;48610;52.144;8.624;2022-11-20T15:34:59;2.60;99.90
62555;DHT22;48610;52.144;8.624;2022-11-20T15:38:00;2.60;99.90
62555;DHT22;48610;52.144;8.624;2022-11-20T15:41:00;2.80;99.90
62555;DHT22;48610;52.144;8.624;2022-11-20T15:44:01;2.80;99.90
62555;DHT22;48610;52.144;8.624;2022-11-20T15:47:02;2.80;99.90
62555;DHT22;48610;52.144;8.624;2022-11-20T15:50:03;2.70;99.90
62555;DHT22;48610;52.144;8.624;2022-11-20T15:53:04;2.60;99.90
62555;DHT22;48610;52.144;8.624;2022-11-20T15:56:05;2.60;99.90
62555;DHT22;48610;52.144;8.624;2022-11-20T15:59:06;2.60;99.90
62555;DHT22;48610;52.144;8.624;2022-11-20T16:02:14;2.50;99.90
62555;DHT22;48610;52.144;8.624;2022-11-20T16:05:15;2.50;99.90
62555;DHT22;48610;52.144;8.624;2022-11-20T16:08:17;2.50;99.90
62555;DHT22;48610;52.144;8.624;2022-11-20T16:11:18;2.50;99.90
62555;DHT22;48610;52.144;8.624;2022-11-20T16:14:19;2.50;99.90
62555;DHT22;48610;52.144;8.624;2022-11-20T16:17:38;2.50;99.90
62555;DHT22;48610;52.144;8.624;2022-11-20T16:20:47;2.30;99.90
62555;DHT22;48610;52.144;8.624;2022-11-20T16:23:48;2.30;99.90
62555;DHT22;48610;52.144;8.624;2022-11-20T16:26:48;2.20;99.90
62555;DHT22;48610;52.144;8.624;2022-11-20T16:29:49;2.10;99.90
62555;DHT22;48610;52.144;8.624;2022-11-20T16:32:50;2.30;99.90
62555;DHT22;48610;52.144;8.624;2022-11-20T16:35:51;2.40;99.90
62555;DHT22;48610;52.144;8.624;2022-11-20T16:39:02;2.30;99.90
62555;DHT22;48610;52.144;8.624;2022-11-20T16:42:03;2.40;99.90
62555;DHT22;48610;52.144;8.624;2022-11-20T16:45:05;2.40;99.90
62555;DHT22;48610;52.144;8.624;2022-11-20T16:48:05;2.50;99.90
62555;DHT22;48610;52.144;8.624;2022-11-20T16:51:10;2.50;99.90
62555;DHT22;48610;52.144;8.624;2022-11-20T16:54:11;2.40;99.90
62555;DHT22;48610;52.144;8.624;2022-11-20T16:57:12;2.40;99.90
62555;DHT22;48610;52.144;8.624;2022-11-20T17:00:13;2.50;99.90
62555;DHT22;48610;52.144;8.624;2022-11-20T17:03:14;2.30;99.90
62555;DHT22;48610;52.144;8.624;2022-11-20T17:06:20;2.10;99.90
62555;DHT22;48610;52.144;8.624;2022-11-20T17:09:21;2.10;99.90
62555;DHT22;48610;52.144;8.624;2022-11-20T17:12:21;2.30;99.90
62555;DHT22;48610;52.144;8.624;2022-11-20T17:15:22;2.30;99.90
62555;DHT22;48610;52.144;8.624;2022-11-20T17:18:22;2.20;99.90
62555;DHT22;48610;52.144;8.624;2022-11-20T17:21:24;2.40;99.90
62555;DHT22;48610;52.144;8.624;2022-11-20T17:24:24;2.40;99.90
62555;DHT22;48610;52.144;8.624;2022-11-20T17:27:25;2.50;99.90
62555;DHT22;48610;52.144;8.624;2022-11-20T17:30:26;2.60;99.90
62555;DHT22;48610;52.144;8.624;2022-11-20T17:33:27;2.50;99.90
62555;DHT22;48610;52.144;8.624;2022-11-20T17:36:29;2.60;99.90
62555;DHT22;48610;52.144;8.624;2022-11-20T17:39:30;2.70;99.90
62555;DHT22;48610;52.144;8.624;2022-11-20T17:42:30;2.60;99.90
62555;DHT22;48610;52.144;8.624;2022-11-20T17:45:36;2.60;99.90
62555;DHT22;48610;52.144;8.624;2022-11-20T17:48:37;2.60;99.90
62555;DHT22;48610;52.144;8.624;2022-11-20T17:51:41;2.50;99.90
62555;DHT22;48610;52.144;8.624;2022-11-20T17:54:42;2.70;99.90
62555;DHT22;48610;52.144;8.624;2022-11-20T17:57:42;2.60;99.90
62555;DHT22;48610;52.144;8.624;2022-11-20T18:00:52;2.70;99.90
62555;DHT22;48610;52.144;8.624;2022-11-20T18:03:55;2.60;99.90
62555;DHT22;48610;52.144;8.624;2022-11-20T18:06:55;2.70;99.90
62555;DHT22;48610;52.144;8.624;2022-11-20T18:09:56;2.70;99.90
62555;DHT22;48610;52.144;8.624;2022-11-20T18:12:57;2.70;99.90
62555;DHT22;48610;52.144;8.624;2022-11-20T18:16:05;2.70;99.90
62555;DHT22;48610;52.144;8.624;2022-11-20T18:19:06;2.70;99.90
62555;DHT22;48610;52.144;8.624;2022-11-20T18:22:07;2.70;99.90
62555;DHT22;48610;52.144;8.624;2022-11-20T18:25:08;2.70;99.90
62555;DHT22;48610;52.144;8.624;2022-11-20T18:28:09;2.40;99.90
62555;DHT22;48610;52.144;8.624;2022-11-20T18:31:10;2.60;99.90
62555;DHT22;48610;52.144;8.624;2022-11-20T18:34:10;2.60;99.90
62555;DHT22;48610;52.144;8.624;2022-11-20T18:37:13;2.60;99.90
62555;DHT22;48610;52.144;8.624;2022-11-20T18:40:15;2.70;99.90
62555;DHT22;48610;52.144;8.624;2022-11-20T18:43:16;2.60;99.90
62555;DHT22;48610;52.144;8.624;2022-11-20T18:46:35;2.60;99.90
62555;DHT22;48610;52.144;8.624;2022-11-20T18:49:36;2.60;99.90
62555;DHT22;48610;52.144;8.624;2022-11-20T18:52:40;2.60;99.90
62555;DHT22;48610;52.144;8.624;2022-11-20T18:55:41;2.30;99.90
62555;DHT22;48610;52.144;8.624;2022-11-20T18:58:42;2.30;99.90
62555;DHT22;48610;52.144;8.624;2022-11-20T19:01:42;2.30;99.90
62555;DHT22;48610;52.144;8.624;2022-11-20T19:04:43;2.30;99.90
62555;DHT22;48610;52.144;8.624;2022-11-20T19:07:44;2.40;99.90
62555;DHT22;48610;52.144;8.624;2022-11-20T19:10:44;2.60;99.90
62555;DHT22;48610;52.144;8.624;2022-11-20T19:13:45;2.60;99.90
62555;DHT22;48610;52.144;8.624;2022-11-20T19:16:46;2.50;99.90
62555;DHT22;48610;52.144;8.624;2022-11-20T19:19:48;2.10;99.90
62555;DHT22;48610;52.144;8.624;2022-11-20T19:22:49;1.90;99.90
62555;DHT22;48610;52.144;8.624;2022-11-20T19:25:50;1.60;99.90
62555;DHT22;48610;52.144;8.624;2022-11-20T19:28:51;1.60;99.90
62555;DHT22;48610;52.144;8.624;2022-11-20T19:31:51;1.60;99.90
62555;DHT22;48610;52.144;8.624;2022-11-20T19:34:52;1.60;99.90
62555;DHT22;48610;52.144;8.624;2022-11-20T19:37:53;1.60;99.90
62555;DHT22;48610;52.144;8.624;2022-11-20T19:40:53;1.50;99.90
62555;DHT22;48610;52.144;8.624;2022-11-20T19:43:59;1.50;99.90
62555;DHT22;48610;52.144;8.624;2022-11-20T19:47:00;1.40;99.90
62555;DHT22;48610;52.144;8.624;2022-11-20T19:50:03;1.50;99.90
62555;DHT22;48610;52.144;8.624;2022-11-20T19:53:04;1.50;99.90
62555;DHT22;48610;52.144;8.624;2022-11-20T19:56:07;1.40;99.90
62555;DHT22;48610;52.144;8.624;2022-11-20T19:59:07;1.40;99.90
62555;DHT22;48610;52.144;8.624;2022-11-20T20:02:10;1.40;99.90
62555;DHT22;48610;52.144;8.624;2022-11-20T20:05:10;1.60;99.90
62555;DHT22;48610;52.144;8.624;2022-11-20T20:08:11;1.50;99.90
62555;DHT22;48610;52.144;8.624;2022-11-20T20:14:15;1.80;99.90
62555;DHT22;48610;52.144;8.624;2022-11-20T20:17:15;1.90;99.90
62555;DHT22;48610;52.144;8.624;2022-11-20T20:20:16;2.00;99.90
62555;DHT22;48610;52.144;8.624;2022-11-20T20:23:17;2.00;99.90
62555;DHT22;48610;52.144;8.624;2022-11-20T20:26:17;2.00;99.90
62555;DHT22;48610;52.144;8.624;2022-11-20T20:29:18;2.00;99.90